Redondo, Valles Caldera, New Mexico Weather observations

Data are for 10 minute period ending at time listed.
 Day   Time   Solar   Ave.   Ave.  Ave.  Vector  Max.   Baro.   Total    
  of    of     Rad.   Air    Rel.  Wind   Wind   Wind  Press.  Precip.   
Year   Day            Temp.  Hum.  Speed  Dir.   Gust                    
2015   (MST)  Kw/m2    F      %     mph   deg.    mph    mb.     in.     
-------------------------------------------------------------------------
 143   22:30   0.00   30.8    72    3.7     0    11.3   686.7    0.00 
 143   22:40   0.00   30.8    72    3.8     0     8.4   686.6    0.00 
 143   22:50   0.00   31.0    71    3.7     0     9.0   686.5    0.00 
 143   23:00   0.00   30.6    73    2.7     0     6.0   686.5    0.00 
 143   23:10   0.00   30.1    74    3.1     0     5.4   686.7    0.00 
 143   23:20   0.00   30.3    74    3.1     0     6.6   686.6    0.00 
 143   23:30   0.00   30.0    75    2.0     0     4.2   686.6    0.00 
 143   23:40   0.00   28.9    78    2.6     0     5.4   686.5    0.00 
 143   23:50   0.00   28.4    81    2.4     0     3.0   686.6    0.00 
 144    0:00   0.00   28.2    82    2.7     0     5.4   686.5    0.00 
 144    0:10   0.00   28.5    82    2.8     0     4.8   686.4    0.00 
 144    0:20   0.00   28.5    82    2.9     0     5.4   686.3    0.00 
 144    0:30   0.00   28.8    80    2.7     0     4.8   686.2    0.00 
 144    0:40   0.00   28.7    81    3.1     0     5.4   686.2    0.00 
 144    0:50   0.00   28.4    83    3.0     0     6.0   686.1    0.00 
 144    1:00   0.00   28.3    83    2.1     0     3.6   686.1    0.00 
 144    1:10   0.00   28.2    84    3.5     0     7.2   686.0    0.00 
 144    1:20   0.00   29.2    81    4.8     0     8.4   685.9    0.00 
 144    1:30   0.00   29.7    80    5.0     0     9.0   685.9    0.00 
 144    1:40   0.00   29.7    81    4.9     0     8.4   685.9    0.00 
 144    1:50   0.00   29.6    82    4.5     0     9.0   685.8    0.00 
 144    2:00   0.00   29.4    83    5.0     0    11.3   685.8    0.00 
 144    2:10   0.00   29.6    82    5.0     0     9.0   685.7    0.00 
 144    2:20   0.00   29.5    83    4.8     0    10.8   685.8    0.00 
 144    2:30   0.00   29.5    84    5.3     0    11.3   685.7    0.00 
 144    2:40   0.00   29.7    84    4.7     0    10.2   685.7    0.00 
 144    2:50   0.00   29.7    86    5.7     0    13.1   685.7    0.00 
 144    3:00   0.00   29.4    87    5.6     0    11.3   685.6    0.00 
 144    3:10   0.00   29.4    88    5.0     0     9.0   685.6    0.00 
 144    3:20   0.00   29.5    88    5.0     0    12.5   685.6    0.00 
 144    3:30   0.00   29.4    89    4.9     0    11.9   685.5    0.00 
 144    3:40   0.00   29.3    90    5.0     0    13.1   685.5    0.00 
 144    3:50   0.00   29.3    91    5.6     0    10.2   685.5    0.00 
 144    4:00   0.00   29.2    92    5.0     0    10.8   685.5    0.00 
 144    4:10   0.00   29.1    93    5.7     0    11.9   685.4    0.00 
 144    4:20   0.00   29.0    94    5.6     0    13.1   685.4    0.00 
 144    4:30   0.00   28.9    94    5.1     0    14.9   685.3    0.00 
 144    4:40   0.00   28.8    95    5.2     0    13.7   685.2    0.00 
 144    4:50   0.00   28.7    95    5.6     0    11.9   685.2    0.00 
 144    5:00   0.00   28.6    96    4.5     0     9.0   685.2    0.00 
 144    5:10   0.01   28.5    96    5.9     0    16.1   685.2    0.00 
 144    5:20   0.01   28.5    96    4.6     0    11.3   685.2    0.00 
 144    5:30   0.02   28.6    96    5.5     0    10.8   685.2    0.00 
 144    5:40   0.04   28.8    96    5.4     0    12.5   685.3    0.00 
 144    5:50   0.03   28.9    96    5.4     0    10.8   685.2    0.00 
 144    6:00   0.05   28.8    96    5.6     0     9.6   685.2    0.00 
 144    6:10   0.04   28.9    96    4.4     0     9.0   685.2    0.00 
 144    6:20   0.04   28.8    96    5.9     0    14.3   685.3    0.00 
 144    6:30   0.05   28.9    96    5.7     0    12.5   685.2    0.00 
 144    6:40   0.06   29.0    96    6.3     0    11.3   685.2    0.00 
 144    6:50   0.03   28.9    96    6.2     0    13.1   685.2    0.00 
 144    7:00   0.09   29.0    96    4.8     0    10.2   685.1    0.00 
 144    7:10   0.06   29.2    96    5.8     0    10.8   685.1    0.00 
 144    7:20   0.07   29.1    96    5.8     0    12.5   685.2    0.00 
 144    7:30   0.18   29.5    96    5.9     0    16.1   685.2    0.00 
 144    7:40   0.09   29.7    96    5.7     0    13.1   685.2    0.00 
 144    7:50   0.10   29.6    96    5.0     0    11.9   685.3    0.00 
 144    8:00   0.07   29.6    96    4.4     0    10.8   685.3    0.00 
 144    8:10   0.09   29.6    96    5.3     0    11.3   685.4    0.00 
 144    8:20   0.15   30.0    96    5.2     0    10.8   685.4    0.00 
 144    8:30   0.08   29.8    96    5.0     0    10.2   685.4    0.00 
 144    8:40   0.10   29.9    96    5.5     0    11.9   685.4    0.00 
 144    8:50   0.10   30.1    96    5.8     0    11.9   685.4    0.00 
 144    9:00   0.12   30.2    96    6.5     0    16.7   685.4    0.00 
 144    9:10   0.22   30.8    96    5.5     0    12.5   685.4    0.00 
 144    9:20   0.11   31.3    95    5.4     0    11.9   685.3    0.00 
 144    9:30   0.10   30.7    94    6.2     0    11.3   685.4    0.00 
 144    9:40   0.12   30.6    95    5.2     0    11.3   685.4    0.00 
 144    9:50   0.10   30.3    95    4.8     0    11.3   685.5    0.00 
 144   10:00   0.10   30.1    96    5.2     0    12.5   685.5    0.00 
 144   10:10   0.15   30.2    96    4.7     0    13.1   685.5    0.00 
 144   10:20   0.32   30.8    96    5.0     0    10.8   685.5    0.00 
 144   10:30   0.23   30.8    96    5.8     0    12.5   685.6    0.00 
 144   10:40   0.20   30.7    96    5.5     0    16.1   685.6    0.00 
 144   10:50   0.14   30.3    96    7.1     0    16.7   685.6    0.00 
 144   11:00   0.19   30.5    96    6.5     0    14.3   685.6    0.00 
 144   11:10   0.38   31.3    96    6.1     0    14.9   685.6    0.00 
 144   11:20   0.64   32.8    96    6.2     0    13.7   685.6    0.00 
 144   11:30   0.46   33.8    95    6.3     0    13.1   685.6    0.00 
 144   11:40   0.32   33.9    95    6.5     0    13.7   685.7    0.00 
 144   11:50   0.22   32.3    95    5.8     0    14.9   685.8    0.00 
 144   12:00   0.31   32.3    95    7.2     0    14.3   685.8    0.00 
 144   12:10   0.23   31.7    96    5.7     0    14.3   685.9    0.00 
 144   12:20   0.24   32.0    96    6.3     0    11.3   685.9    0.00 
 144   12:30   0.15   31.7    96    4.9     0     9.6   685.9    0.00 
 144   12:40   0.17   31.8    96    5.3     0    10.8   685.8    0.00 
 144   12:50   0.26   32.4    96    6.6     0    13.1   685.8    0.00 
 144   13:00   0.37   33.4    96    6.7     0    14.9   685.6    0.00 
 144   13:10   0.26   33.4    96    7.9     0    18.5   685.6    0.00 
 144   13:20   0.81   35.0    95    8.4     0    16.7   685.6    0.00 
 144   13:30   0.31   34.9    93    8.0     0    15.5   685.5    0.00 
 144   13:40   0.50   35.0    91    8.6     0    17.9   685.4    0.00 
 144   13:50   0.78   37.1    87    7.8     0    17.3   685.3    0.00 
 144   14:00   0.69   37.8    84    8.5     0    16.7   685.2    0.00 
 144   14:10   0.86   39.0    79    9.0     0    20.3   685.2    0.00 
 144   14:20   0.41   38.9    78    7.0     0    14.9   685.3    0.00 
 144   14:30   0.29   37.1    82    7.9     0    15.5   685.3    0.00 
 144   14:40   0.32   36.8    81    8.6     0    16.7   685.3    0.00 
 144   14:50   0.28   36.2    83    7.8     0    14.3   685.3    0.00 
 144   15:00   0.26   35.9    83    7.6     0    13.7   685.3    0.00 
 144   15:10   0.31   36.7    82    7.0     0    16.1   685.4    0.00 
 144   15:20   0.35   37.1    81    6.6     0    14.9   685.2    0.00 
 144   15:30   0.45   38.6    76    7.2     0    13.7   685.2    0.00 
 144   15:40   0.18   37.6    77    6.7     0    14.3   685.2    0.00 
 144   15:50   0.12   36.3    80    7.9     0    16.1   685.2    0.00 
 144   16:00   0.42   36.9    82    6.6     0    13.1   685.2    0.00 
 144   16:10   0.18   37.8    78    6.9     0    16.1   685.1    0.00 
 144   16:20   0.05   36.1    83    5.7     0    17.3   685.2    0.00 
 144   16:30   0.10   34.5    88    6.7     0    15.5   685.2    0.00 
 144   16:40   0.50   36.2    90    6.4     0    15.5   685.0    0.00 
 144   16:50   0.28   39.3    82    6.2     0    12.5   684.9    0.00 
 144   17:00   0.38   39.0    79    6.5     0    13.1   684.9    0.00 
 144   17:10   0.40   39.2    76    7.9     0    16.1   684.9    0.00 
 144   17:20   0.37   40.2    73    7.7     0    15.5   684.9    0.00 
 144   17:30   0.26   39.1    76    6.8     0    13.1   684.8    0.00 
 144   17:40   0.16   38.6    78    5.7     0    11.3   684.7    0.00 
 144   17:50   0.17   38.8    76    6.9     0    15.5   684.8    0.00 
 144   18:00   0.21   38.6    78    5.9     0    12.5   684.9    0.00 
 144   18:10   0.16   38.5    78    7.0     0    13.7   684.9    0.00 
 144   18:20   0.12   36.9    82    5.3     0    13.7   685.0    0.00 
 144   18:30   0.08   36.5    82    4.8     0    10.8   685.0    0.00 
 144   18:40   0.05   35.6    84    5.0     0    11.3   685.0    0.00 
 144   18:50   0.02   34.7    85    4.9     0    10.8   685.1    0.00 
 144   19:00   0.01   34.0    87    4.7     0     9.6   685.2    0.00 
 144   19:10   0.01   33.8    89    5.1     0    13.1   685.2    0.00 
 144   19:20   0.00   33.6    90    4.4     0     9.6   685.3    0.00 
 144   19:30   0.00   33.2    90    4.5     0    10.2   685.4    0.00 
 144   19:40   0.00   32.8    90    3.6     0     7.8   685.4    0.00 
 144   19:50   0.00   32.3    90    4.1     0     8.4   685.5    0.00 
 144   20:00   0.00   32.1    91    3.7     0     9.6   685.5    0.00 
 144   20:10   0.00   32.0    92    3.1     0     9.6   685.5    0.00 
 144   20:20   0.00   31.8    92    1.5     0     8.4   685.7    0.00 
 144   20:30   0.00   31.7    93    0.9     0     6.0   685.8    0.00 
 144   20:40   0.00   31.9    94    3.0     0     8.4   686.0    0.00 
 144   20:50   0.00   31.8    91    4.3     0     8.4   686.1    0.00 
 144   21:00   0.00   31.9    91    3.8     0     7.8   686.3    0.00 
 144   21:10   0.00   32.0    93    3.7     0     9.0   686.3    0.00 
 144   21:20   0.00   32.0    93    4.3     0     7.8   686.4    0.00 
 144   21:30   0.00   32.2    94    4.7     0    10.2   686.4    0.00 
 144   21:40   0.00   32.0    95    4.5     0     9.6   686.4    0.00 
 144   21:50   0.00   31.8    95    5.1     0    10.8   686.5    0.00 
 144   22:00   0.00   31.7    94    5.0     0    12.5   686.5    0.00 
 144   22:10   0.00   31.9    93    4.9     0    10.2   686.5    0.00 
 144   22:20   0.00   32.1    92    4.8     0    10.2   686.5    0.00 

Return to Redondo, Valles Caldera graphs page.


Western Regional Climate Center,wrcc@dri.edu